createdAt,value
2022-10-11T00:01:20.465Z,6.10
2022-10-11T00:03:53.725Z,5.80
2022-10-11T00:06:33.750Z,5.60
2022-10-11T00:09:11.842Z,6.00
2022-10-11T00:11:48.919Z,6.40
2022-10-11T00:14:24.773Z,6.00
2022-10-11T00:17:01.668Z,6.20
2022-10-11T00:19:35.358Z,5.70
2022-10-11T00:22:09.302Z,5.50
2022-10-11T00:24:42.286Z,5.40
2022-10-11T00:27:15.528Z,5.50
2022-10-11T00:29:48.227Z,5.80
2022-10-11T00:32:21.928Z,6.20
2022-10-11T00:34:56.885Z,5.70
2022-10-11T00:37:30.108Z,5.50
2022-10-11T00:40:04.668Z,5.50
2022-10-11T00:42:37.665Z,5.30
2022-10-11T00:45:33.939Z,5.70
2022-10-11T00:48:31.427Z,5.00
2022-10-11T00:51:09.008Z,4.70
2022-10-11T00:53:42.993Z,5.50
2022-10-11T00:56:29.581Z,5.30
2022-10-11T00:59:04.643Z,5.50
2022-10-11T01:01:37.727Z,5.80
2022-10-11T01:04:10.952Z,5.90
2022-10-11T01:06:45.014Z,6.30
2022-10-11T01:09:19.608Z,5.80
2022-10-11T01:11:55.804Z,5.70
2022-10-11T01:14:34.697Z,5.30
2022-10-11T01:17:25.932Z,5.90
2022-10-11T01:20:41.279Z,5.70
2022-10-11T01:23:42.831Z,6.00
2022-10-11T01:26:39.067Z,5.70
2022-10-11T01:29:49.768Z,5.70
2022-10-11T01:32:37.872Z,5.50
2022-10-11T01:35:33.319Z,5.80
2022-10-11T01:38:36.970Z,4.90
2022-10-11T01:41:40.168Z,4.70
2022-10-11T01:44:15.518Z,5.60
2022-10-11T01:46:48.775Z,5.70
2022-10-11T01:49:23.168Z,6.30
2022-10-11T01:52:06.733Z,5.90
2022-10-11T01:55:09.093Z,5.90
2022-10-11T01:58:07.134Z,6.00
2022-10-11T02:01:23.977Z,5.90
2022-10-11T02:04:14.288Z,6.30
2022-10-11T02:07:03.972Z,6.60
2022-10-11T02:09:59.291Z,5.40
2022-10-11T02:12:44.837Z,6.30
2022-10-11T02:15:30.888Z,5.90
2022-10-11T02:18:10.084Z,7.80
2022-10-11T02:23:30.167Z,5.70
2022-10-11T02:26:10.459Z,5.60
2022-10-11T02:28:46.478Z,5.80
2022-10-11T02:31:22.097Z,7.30
2022-10-11T02:34:18.719Z,8.90
2022-10-11T02:37:06.685Z,9.30
2022-10-11T02:40:20.782Z,9.30
2022-10-11T02:43:24.552Z,9.80
2022-10-11T02:46:02.581Z,9.80
2022-10-11T02:48:36.764Z,8.30
2022-10-11T02:51:17.114Z,7.90
2022-10-11T02:53:52.604Z,7.90
2022-10-11T02:56:26.823Z,7.80
2022-10-11T02:59:00.919Z,8.00
2022-10-11T03:01:36.551Z,7.60
2022-10-11T03:04:09.669Z,7.00
2022-10-11T03:06:41.971Z,6.70
2022-10-11T03:09:14.473Z,6.90
2022-10-11T03:11:47.135Z,6.90
2022-10-11T03:14:19.865Z,7.10
2022-10-11T03:16:52.505Z,5.60
2022-10-11T03:19:25.770Z,6.00
2022-10-11T03:21:58.395Z,5.70
2022-10-11T03:24:31.092Z,5.70
2022-10-11T03:27:27.394Z,5.80
2022-10-11T03:30:06.155Z,6.10
2022-10-11T03:32:42.473Z,7.30
2022-10-11T03:35:16.103Z,7.10
2022-10-11T03:37:54.449Z,7.30
2022-10-11T03:40:28.253Z,6.90
2022-10-11T03:43:01.854Z,6.60
2022-10-11T03:45:35.044Z,7.60
2022-10-11T03:48:16.725Z,7.00
2022-10-11T03:50:53.897Z,6.80
2022-10-11T03:53:27.520Z,6.80
2022-10-11T03:56:05.850Z,6.90
2022-10-11T03:58:42.440Z,6.50
2022-10-11T04:01:15.625Z,6.40
2022-10-11T04:03:49.023Z,6.40
2022-10-11T04:06:22.179Z,5.90
2022-10-11T04:08:55.471Z,5.90
2022-10-11T04:11:29.042Z,7.00
2022-10-11T04:14:02.771Z,7.10
2022-10-11T04:16:43.517Z,7.20
2022-10-11T04:19:22.887Z,7.60
2022-10-11T04:21:57.095Z,7.50
2022-10-11T04:24:32.036Z,7.20
2022-10-11T04:27:11.360Z,7.90
2022-10-11T04:29:45.789Z,7.00
2022-10-11T04:32:34.272Z,7.60
2022-10-11T04:35:13.499Z,7.70
2022-10-11T04:37:56.004Z,7.50
2022-10-11T04:40:29.640Z,7.50
2022-10-11T04:43:02.785Z,6.70
2022-10-11T04:45:35.828Z,7.60
2022-10-11T04:48:08.788Z,6.50
2022-10-11T04:50:41.797Z,7.50
2022-10-11T04:53:15.238Z,8.00
2022-10-11T04:55:59.224Z,7.70
2022-10-11T04:58:34.734Z,7.40
2022-10-11T05:01:08.562Z,8.30
2022-10-11T05:03:42.330Z,8.80
2022-10-11T05:06:16.313Z,9.40
2022-10-11T05:08:50.707Z,9.00
2022-10-11T05:11:24.593Z,9.80
2022-10-11T05:13:58.624Z,9.60
2022-10-11T05:16:33.079Z,11.20
2022-10-11T05:19:07.281Z,10.20
2022-10-11T05:21:41.009Z,11.40
2022-10-11T05:24:14.688Z,10.80
2022-10-11T05:26:48.245Z,10.80
2022-10-11T05:29:22.975Z,10.40
2022-10-11T05:31:56.083Z,10.30
2022-10-11T05:34:29.347Z,10.20
2022-10-11T05:37:02.126Z,9.90
2022-10-11T05:39:35.280Z,10.70
2022-10-11T05:42:09.991Z,11.50
2022-10-11T05:44:44.403Z,11.50
2022-10-11T05:47:17.720Z,10.90
2022-10-11T05:49:51.377Z,9.50
2022-10-11T05:52:24.708Z,12.00
2022-10-11T05:54:58.935Z,12.30
2022-10-11T05:57:32.626Z,15.60
2022-10-11T06:00:07.056Z,10.90
2022-10-11T06:02:47.090Z,9.50
2022-10-11T06:05:20.128Z,8.70
2022-10-11T06:07:53.192Z,8.40
2022-10-11T06:10:26.519Z,7.10
2022-10-11T06:12:59.939Z,8.80
2022-10-11T06:15:32.935Z,8.20
2022-10-11T06:18:06.090Z,8.30
2022-10-11T06:20:40.035Z,8.80
2022-10-11T06:23:13.273Z,8.60
2022-10-11T06:25:46.453Z,9.70
2022-10-11T06:28:20.069Z,9.30
2022-10-11T06:30:53.708Z,10.20
2022-10-11T06:33:30.211Z,8.70
2022-10-11T06:36:18.628Z,8.40
2022-10-11T06:38:56.001Z,8.10
2022-10-11T06:41:30.926Z,8.60
2022-10-11T06:44:04.086Z,8.50
2022-10-11T06:46:37.168Z,8.70
2022-10-11T06:49:09.952Z,9.90
2022-10-11T06:51:43.465Z,9.50
2022-10-11T06:54:16.448Z,9.60
2022-10-11T06:56:48.944Z,10.40
2022-10-11T06:59:21.609Z,12.10
2022-10-11T07:01:54.387Z,11.10
2022-10-11T07:04:29.117Z,12.10
2022-10-11T07:07:02.629Z,11.00
2022-10-11T07:09:36.024Z,10.10
2022-10-11T07:12:09.079Z,10.60
2022-10-11T07:14:41.822Z,10.80
2022-10-11T07:17:14.647Z,8.90
2022-10-11T07:19:47.384Z,8.70
2022-10-11T07:22:20.418Z,9.10
2022-10-11T07:24:53.179Z,10.40
2022-10-11T07:27:27.207Z,10.00
2022-10-11T07:29:59.984Z,7.70
2022-10-11T07:32:33.329Z,7.70
2022-10-11T07:35:07.325Z,7.80
2022-10-11T07:37:40.663Z,7.40
2022-10-11T07:40:14.246Z,6.30
2022-10-11T07:42:47.325Z,6.00
2022-10-11T07:45:21.804Z,6.00
2022-10-11T07:47:57.314Z,6.90
2022-10-11T07:50:30.226Z,6.60
2022-10-11T07:53:03.107Z,7.10
2022-10-11T07:55:43.563Z,6.70
2022-10-11T07:58:16.881Z,6.20
2022-10-11T08:00:55.994Z,6.20
2022-10-11T08:03:29.128Z,5.60
2022-10-11T08:06:11.082Z,5.90
2022-10-11T08:08:44.322Z,5.60
2022-10-11T08:11:27.990Z,5.90
2022-10-11T08:14:01.769Z,5.90
2022-10-11T08:16:34.366Z,6.00
2022-10-11T08:19:07.456Z,5.60
2022-10-11T08:21:40.887Z,5.30
2022-10-11T08:24:21.495Z,5.50
2022-10-11T08:26:55.006Z,5.00
2022-10-11T08:29:27.627Z,4.30
2022-10-11T08:32:00.435Z,3.50
2022-10-11T08:34:33.410Z,4.00
2022-10-11T08:37:06.211Z,3.70
2022-10-11T08:39:39.444Z,3.20
2022-10-11T08:42:36.458Z,3.80
2022-10-11T08:45:26.660Z,3.30
2022-10-11T08:48:27.064Z,3.00
2022-10-11T08:51:00.777Z,3.10
2022-10-11T08:53:44.959Z,3.30
2022-10-11T08:56:20.339Z,2.80
2022-10-11T08:59:17.678Z,3.60
2022-10-11T09:01:59.969Z,3.40
2022-10-11T09:04:33.932Z,2.40
2022-10-11T09:07:32.509Z,2.50
2022-10-11T09:10:22.322Z,2.50
2022-10-11T09:13:31.952Z,2.90
2022-10-11T09:16:10.615Z,2.90
2022-10-11T09:19:23.957Z,2.70
2022-10-11T09:22:20.845Z,3.10
2022-10-11T09:24:59.025Z,2.60
2022-10-11T09:28:02.202Z,2.90
2022-10-11T09:30:42.403Z,2.50
2022-10-11T09:33:23.669Z,3.10
2022-10-11T09:35:59.060Z,2.80
2022-10-11T09:38:44.050Z,2.60
2022-10-11T09:41:36.873Z,3.20
2022-10-11T09:44:15.826Z,3.00
2022-10-11T09:46:50.439Z,2.80
2022-10-11T09:49:27.023Z,3.00
2022-10-11T09:52:03.280Z,3.10
2022-10-11T09:54:46.636Z,3.10
2022-10-11T09:57:37.985Z,2.70
2022-10-11T10:00:25.825Z,3.00
2022-10-11T10:03:00.837Z,2.90
2022-10-11T10:05:39.014Z,2.80
2022-10-11T10:08:14.579Z,2.80
2022-10-11T10:11:00.241Z,3.10
2022-10-11T10:13:42.246Z,2.80
2022-10-11T10:16:27.213Z,3.20
2022-10-11T10:19:08.688Z,3.00
2022-10-11T10:21:50.897Z,2.80
2022-10-11T10:24:40.168Z,2.70
2022-10-11T10:27:28.944Z,2.90
2022-10-11T10:30:16.290Z,3.20
2022-10-11T10:33:02.550Z,3.50
2022-10-11T10:35:51.832Z,3.20
2022-10-11T10:38:41.725Z,3.80
2022-10-11T10:41:16.303Z,2.90
2022-10-11T10:43:58.786Z,2.80
2022-10-11T10:46:53.401Z,3.20
2022-10-11T10:49:53.989Z,3.20
2022-10-11T10:53:12.260Z,2.90
2022-10-11T10:55:52.158Z,2.60
2022-10-11T10:58:45.429Z,3.20
2022-10-11T11:01:38.480Z,3.00
2022-10-11T11:04:30.807Z,3.20
2022-10-11T11:07:33.219Z,3.60
2022-10-11T11:10:15.667Z,3.30
2022-10-11T11:13:14.586Z,3.30
2022-10-11T11:16:28.166Z,3.30
2022-10-11T11:19:35.776Z,3.50
2022-10-11T11:22:16.306Z,3.20
2022-10-11T11:25:14.622Z,3.30
2022-10-11T11:27:49.885Z,3.60
2022-10-11T11:30:24.129Z,3.60
2022-10-11T11:33:11.171Z,2.90
2022-10-11T11:35:45.713Z,3.50
2022-10-11T11:38:20.779Z,4.10
2022-10-11T11:41:03.591Z,4.30
2022-10-11T11:44:06.040Z,3.60
2022-10-11T11:46:54.781Z,3.30
2022-10-11T11:49:41.780Z,3.40
2022-10-11T11:52:28.399Z,3.70
2022-10-11T11:55:18.877Z,3.80
2022-10-11T11:57:57.144Z,3.60
2022-10-11T12:00:35.736Z,4.10
2022-10-11T12:03:29.882Z,4.30
2022-10-11T12:06:20.527Z,3.80
2022-10-11T12:09:04.533Z,3.80
2022-10-11T12:11:50.799Z,3.80
2022-10-11T12:14:42.930Z,3.60
2022-10-11T12:17:24.961Z,3.80
2022-10-11T12:20:17.957Z,3.80
2022-10-11T12:22:55.082Z,3.70
2022-10-11T12:25:33.585Z,3.70
2022-10-11T12:28:51.468Z,3.60
2022-10-11T12:31:35.946Z,3.40
2022-10-11T12:34:42.156Z,3.30
2022-10-11T12:37:24.320Z,3.50
2022-10-11T12:39:59.153Z,3.60
2022-10-11T12:42:33.427Z,3.10
2022-10-11T12:45:15.002Z,3.30
2022-10-11T12:47:49.364Z,3.10
2022-10-11T12:50:41.506Z,3.30
2022-10-11T12:54:07.866Z,3.00
2022-10-11T12:56:46.656Z,2.90
2022-10-11T12:59:23.856Z,3.00
2022-10-11T13:02:01.663Z,3.30
2022-10-11T13:04:37.848Z,2.90
2022-10-11T13:07:24.105Z,3.20
2022-10-11T13:09:57.961Z,4.20
2022-10-11T13:12:33.819Z,3.80
2022-10-11T13:15:10.270Z,3.90
2022-10-11T13:17:44.813Z,3.60
2022-10-11T13:20:25.885Z,3.70
2022-10-11T13:22:59.616Z,4.60
2022-10-11T13:25:40.922Z,4.60
2022-10-11T13:28:13.777Z,3.50
2022-10-11T13:30:50.394Z,3.90
2022-10-11T13:33:32.969Z,4.90
2022-10-11T13:36:08.254Z,4.60
2022-10-11T13:38:41.277Z,4.50
2022-10-11T13:41:14.288Z,4.80
2022-10-11T13:43:47.840Z,4.60
2022-10-11T13:46:26.660Z,4.80
2022-10-11T13:49:07.975Z,4.30
2022-10-11T13:51:41.141Z,3.90
2022-10-11T13:54:14.123Z,4.10
2022-10-11T13:56:52.779Z,5.30
2022-10-11T13:59:29.547Z,4.50
2022-10-11T14:02:04.923Z,4.90
2022-10-11T14:04:44.357Z,4.40
2022-10-11T14:07:35.786Z,4.20
2022-10-11T14:10:09.694Z,4.30
2022-10-11T14:12:44.972Z,4.70
2022-10-11T14:15:32.165Z,3.80
2022-10-11T14:18:25.375Z,4.20
2022-10-11T14:20:58.331Z,4.00
2022-10-11T14:23:31.533Z,4.30
2022-10-11T14:26:05.326Z,5.50
2022-10-11T14:28:38.431Z,5.50
2022-10-11T14:31:11.535Z,5.60
2022-10-11T14:33:44.849Z,6.50
2022-10-11T14:36:17.370Z,4.90
2022-10-11T14:38:50.037Z,6.00
2022-10-11T14:41:23.121Z,6.10
2022-10-11T14:43:57.018Z,5.50
2022-10-11T14:46:30.592Z,5.40
2022-10-11T14:49:03.636Z,6.00
2022-10-11T14:51:38.343Z,6.30
2022-10-11T14:54:11.557Z,6.40
2022-10-11T14:56:44.509Z,6.70
2022-10-11T14:59:21.720Z,6.50
2022-10-11T15:01:55.447Z,6.10
2022-10-11T15:04:29.613Z,6.00
2022-10-11T15:07:02.862Z,5.80
2022-10-11T15:09:37.542Z,6.20
2022-10-11T15:12:11.291Z,5.70
2022-10-11T15:14:44.350Z,5.90
2022-10-11T15:17:17.493Z,5.70
2022-10-11T15:19:51.251Z,5.90
2022-10-11T15:22:23.723Z,6.50
2022-10-11T15:24:57.263Z,7.50
2022-10-11T15:27:30.145Z,6.70
2022-10-11T15:30:03.196Z,6.90
2022-10-11T15:32:36.264Z,6.50
2022-10-11T15:35:09.586Z,7.40
2022-10-11T15:37:42.948Z,7.70
2022-10-11T15:40:35.315Z,7.00
2022-10-11T15:45:40.392Z,7.90
2022-10-11T15:48:19.298Z,7.80
2022-10-11T15:50:53.749Z,8.30
2022-10-11T15:53:30.751Z,9.40
2022-10-11T15:56:10.015Z,11.00
2022-10-11T15:58:44.308Z,14.50
2022-10-11T16:01:21.735Z,16.50
2022-10-11T16:03:55.052Z,22.00
2022-10-11T16:06:28.289Z,19.80
2022-10-11T16:09:01.710Z,15.70
2022-10-11T16:11:34.840Z,14.50
2022-10-11T16:14:08.166Z,13.80
2022-10-11T16:16:41.252Z,13.60
2022-10-11T16:19:15.078Z,11.90
2022-10-11T16:21:48.043Z,12.60
2022-10-11T16:24:21.368Z,13.30
2022-10-11T16:26:54.697Z,17.70
2022-10-11T16:29:27.934Z,13.40
2022-10-11T16:32:00.923Z,9.90
2022-10-11T16:34:34.603Z,11.00
2022-10-11T16:37:07.494Z,10.50
2022-10-11T16:39:40.257Z,10.30
2022-10-11T16:42:12.868Z,9.80
2022-10-11T16:44:45.932Z,9.90
2022-10-11T16:47:19.172Z,9.80
2022-10-11T16:49:52.093Z,10.20
2022-10-11T16:52:25.413Z,10.00
2022-10-11T16:54:58.691Z,8.60
2022-10-11T16:57:32.318Z,10.00
2022-10-11T17:00:06.130Z,9.60
2022-10-11T17:02:38.982Z,8.90
2022-10-11T17:05:12.059Z,8.90
2022-10-11T17:07:44.788Z,10.40
2022-10-11T17:10:18.104Z,10.30
2022-10-11T17:12:50.879Z,10.50
2022-10-11T17:15:26.765Z,10.60
2022-10-11T17:18:00.251Z,9.20
2022-10-11T17:20:34.154Z,8.70
2022-10-11T17:23:06.924Z,8.40
2022-10-11T17:25:47.487Z,8.50
2022-10-11T17:28:20.589Z,8.00
2022-10-11T17:31:00.031Z,9.10
2022-10-11T17:33:33.575Z,9.00
2022-10-11T17:36:21.973Z,9.90
2022-10-11T17:38:55.663Z,8.90
2022-10-11T17:41:32.017Z,10.00
2022-10-11T17:44:05.979Z,9.30
2022-10-11T17:46:39.299Z,8.40
2022-10-11T17:49:13.188Z,9.10
2022-10-11T17:51:46.369Z,8.50
2022-10-11T17:54:19.906Z,8.60
2022-10-11T17:56:52.967Z,8.40
2022-10-11T17:59:27.987Z,7.40
2022-10-11T18:02:01.620Z,7.80
2022-10-11T18:04:34.494Z,8.10
2022-10-11T18:07:07.094Z,8.40
2022-10-11T18:09:41.579Z,8.50
2022-10-11T18:12:14.570Z,9.20
2022-10-11T18:14:51.663Z,10.30
2022-10-11T18:17:24.829Z,11.30
2022-10-11T18:19:57.949Z,11.10
2022-10-11T18:22:31.274Z,12.00
2022-10-11T18:25:04.394Z,16.70
2022-10-11T18:27:37.486Z,13.70
2022-10-11T18:30:11.000Z,9.90
2022-10-11T18:32:44.578Z,10.30
2022-10-11T18:35:17.577Z,10.20
2022-10-11T18:37:52.106Z,9.60
2022-10-11T18:40:25.622Z,9.50
2022-10-11T18:42:59.406Z,9.80
2022-10-11T18:45:32.491Z,10.70
2022-10-11T18:48:05.495Z,10.90
2022-10-11T18:50:38.403Z,10.50
2022-10-11T18:53:11.235Z,10.00
2022-10-11T18:55:44.015Z,9.70
2022-10-11T18:58:16.765Z,10.10
2022-10-11T19:00:49.728Z,9.60
2022-10-11T19:03:22.784Z,10.40
2022-10-11T19:05:55.889Z,10.20
2022-10-11T19:08:29.111Z,10.20
2022-10-11T19:11:13.301Z,10.80
2022-10-11T19:13:46.535Z,11.00
2022-10-11T19:16:19.750Z,10.70
2022-10-11T19:18:53.655Z,10.30
2022-10-11T19:21:26.627Z,10.40
2022-10-11T19:24:00.306Z,10.80
2022-10-11T19:26:38.726Z,10.50
2022-10-11T19:29:19.291Z,10.80
2022-10-11T19:31:57.596Z,12.20
2022-10-11T19:34:33.349Z,12.00
2022-10-11T19:37:06.877Z,10.90
2022-10-11T19:39:44.424Z,10.40
2022-10-11T19:42:17.990Z,10.30
2022-10-11T19:44:50.925Z,10.40
2022-10-11T19:47:23.699Z,11.70
2022-10-11T19:49:56.521Z,11.20
2022-10-11T19:52:29.980Z,11.00
2022-10-11T19:55:02.830Z,10.00
2022-10-11T19:57:35.338Z,9.00
2022-10-11T20:00:08.519Z,8.80
2022-10-11T20:02:41.337Z,9.00
2022-10-11T20:05:14.190Z,7.00
2022-10-11T20:07:47.142Z,6.50
2022-10-11T20:10:20.161Z,6.80
2022-10-11T20:12:52.750Z,6.60
2022-10-11T20:15:25.482Z,6.60
2022-10-11T20:17:58.752Z,7.40
2022-10-11T20:20:32.705Z,7.30
2022-10-11T20:23:05.704Z,7.20
2022-10-11T20:25:39.321Z,7.70
2022-10-11T20:28:12.129Z,7.90
2022-10-11T20:30:45.954Z,8.30
2022-10-11T20:33:19.429Z,7.70
2022-10-11T20:36:03.229Z,8.80
2022-10-11T20:38:36.839Z,8.00
2022-10-11T20:41:11.871Z,8.50
2022-10-11T20:43:54.063Z,7.80
2022-10-11T20:46:30.505Z,9.30
2022-10-11T20:49:09.628Z,9.60
2022-10-11T20:51:43.346Z,9.60
2022-10-11T20:54:16.593Z,8.80
2022-10-11T20:56:49.523Z,7.90
2022-10-11T20:59:22.975Z,7.20
2022-10-11T21:01:55.854Z,7.50
2022-10-11T21:04:29.034Z,8.80
2022-10-11T21:07:02.334Z,9.60
2022-10-11T21:09:35.049Z,9.20
2022-10-11T21:12:08.074Z,9.20
2022-10-11T21:14:41.119Z,9.10
2022-10-11T21:19:45.655Z,9.70
2022-10-11T21:22:18.389Z,9.60
2022-10-11T21:24:51.582Z,9.40
2022-10-11T21:27:25.731Z,11.20
2022-10-11T21:29:59.022Z,10.20
2022-10-11T21:32:32.330Z,11.30
2022-10-11T21:35:05.374Z,9.90
2022-10-11T21:37:38.315Z,8.90
2022-10-11T21:40:11.633Z,7.00
2022-10-11T21:42:45.106Z,7.50
2022-10-11T21:45:18.259Z,7.10
2022-10-11T21:47:51.340Z,6.90
2022-10-11T21:50:24.041Z,8.70
2022-10-11T21:52:56.829Z,9.40
2022-10-11T21:55:30.054Z,9.30
2022-10-11T21:58:02.554Z,8.90
2022-10-11T22:00:35.348Z,8.80
2022-10-11T22:03:07.908Z,9.80
2022-10-11T22:05:48.145Z,9.30
2022-10-11T22:08:21.506Z,9.30
2022-10-11T22:10:59.384Z,9.50
2022-10-11T22:13:34.512Z,10.00
2022-10-11T22:16:13.027Z,10.30
2022-10-11T22:18:46.188Z,8.70
2022-10-11T22:21:21.240Z,9.00
2022-10-11T22:23:57.513Z,7.90
2022-10-11T22:26:32.305Z,8.50
2022-10-11T22:29:04.832Z,7.30
2022-10-11T22:31:37.882Z,9.50
2022-10-11T22:34:10.715Z,9.10
2022-10-11T22:36:43.304Z,9.50
2022-10-11T22:39:16.106Z,9.40
2022-10-11T22:41:48.752Z,8.90
2022-10-11T22:44:21.463Z,9.20
2022-10-11T22:46:54.216Z,8.90
2022-10-11T22:49:27.024Z,10.00
2022-10-11T22:52:00.091Z,10.40
2022-10-11T22:54:33.094Z,10.50
2022-10-11T22:57:06.042Z,10.00
2022-10-11T22:59:39.105Z,8.90
2022-10-11T23:02:12.081Z,8.70
2022-10-11T23:04:44.693Z,9.10
2022-10-11T23:07:17.896Z,8.70
2022-10-11T23:09:50.524Z,8.70
2022-10-11T23:12:23.264Z,9.40
2022-10-11T23:14:55.725Z,9.70
2022-10-11T23:17:28.156Z,9.90
2022-10-11T23:20:00.442Z,9.90
2022-10-11T23:22:33.059Z,10.10
2022-10-11T23:25:05.773Z,10.50
2022-10-11T23:27:38.900Z,10.00
2022-10-11T23:30:12.847Z,11.10
2022-10-11T23:32:46.155Z,10.50
2022-10-11T23:35:19.662Z,10.30
2022-10-11T23:37:54.919Z,10.30
2022-10-11T23:40:28.747Z,10.00
2022-10-11T23:43:01.492Z,9.40
2022-10-11T23:45:34.526Z,9.70
2022-10-11T23:48:08.937Z,9.30
2022-10-11T23:50:42.449Z,8.70
2022-10-11T23:53:15.149Z,9.50
2022-10-11T23:55:48.281Z,10.20
2022-10-11T23:58:20.942Z,9.90
